createdAt,value
2019-03-26T00:02:04.195Z,4.70
2019-03-26T00:04:33.099Z,4.70
2019-03-26T00:07:02.024Z,4.67
2019-03-26T00:09:30.933Z,4.57
2019-03-26T00:12:00.006Z,4.47
2019-03-26T00:14:29.163Z,4.67
2019-03-26T00:16:58.153Z,4.83
2019-03-26T00:19:27.113Z,4.83
2019-03-26T00:21:56.133Z,5.07
2019-03-26T00:24:24.997Z,4.80
2019-03-26T00:26:53.920Z,4.73
2019-03-26T00:29:22.723Z,4.80
2019-03-26T00:31:51.544Z,4.13
2019-03-26T00:34:20.121Z,4.97
2019-03-26T00:36:48.605Z,5.40
2019-03-26T00:39:17.420Z,4.77
2019-03-26T00:41:46.334Z,4.50
2019-03-26T00:44:15.179Z,4.80
2019-03-26T00:46:44.087Z,5.10
2019-03-26T00:49:13.050Z,5.30
2019-03-26T00:51:41.985Z,5.70
2019-03-26T00:54:10.477Z,6.13
2019-03-26T00:56:39.362Z,5.50
2019-03-26T00:59:08.220Z,5.33
2019-03-26T01:01:37.108Z,4.90
2019-03-26T01:04:06.145Z,5.67
2019-03-26T01:06:35.096Z,5.73
2019-03-26T01:09:06.355Z,6.00
2019-03-26T01:11:36.657Z,5.63
2019-03-26T01:14:05.896Z,5.50
2019-03-26T01:16:35.004Z,5.80
2019-03-26T01:19:04.090Z,5.77
2019-03-26T01:21:32.940Z,6.47
2019-03-26T01:24:01.906Z,6.17
2019-03-26T01:26:30.954Z,5.33
2019-03-26T01:28:59.509Z,5.90
2019-03-26T01:31:28.317Z,6.23
2019-03-26T01:33:56.837Z,6.70
2019-03-26T01:36:25.479Z,6.90
2019-03-26T01:38:54.070Z,6.70
2019-03-26T01:41:22.938Z,6.60
2019-03-26T01:43:51.881Z,6.40
2019-03-26T01:46:20.368Z,7.10
2019-03-26T01:48:49.507Z,7.90
2019-03-26T01:51:18.382Z,7.27
2019-03-26T01:53:47.266Z,7.27
2019-03-26T01:56:16.069Z,6.67
2019-03-26T01:58:44.672Z,6.63
2019-03-26T02:01:13.312Z,7.00
2019-03-26T02:03:42.206Z,6.60
2019-03-26T02:06:11.003Z,6.67
2019-03-26T02:08:39.863Z,6.83
2019-03-26T02:11:08.817Z,7.30
2019-03-26T02:13:37.853Z,8.23
2019-03-26T02:16:06.875Z,7.17
2019-03-26T02:18:35.946Z,7.60
2019-03-26T02:21:05.516Z,7.70
2019-03-26T02:39:05.239Z,7.17
2019-03-26T02:41:37.647Z,7.17
2019-03-26T02:44:04.589Z,7.73
2019-03-26T02:46:33.301Z,6.53
2019-03-26T02:49:02.381Z,7.60
2019-03-26T02:57:55.809Z,8.10
2019-03-26T03:05:09.544Z,8.50
2019-03-26T03:07:00.133Z,8.20
2019-03-26T03:09:30.630Z,8.00
2019-03-26T03:11:59.840Z,8.77
2019-03-26T03:14:28.800Z,9.07
2019-03-26T03:16:57.801Z,7.77
2019-03-26T03:19:26.807Z,8.50
2019-03-26T03:21:55.881Z,7.93
2019-03-26T03:24:24.792Z,9.07
2019-03-26T03:26:53.468Z,8.20
2019-03-26T03:29:24.033Z,8.07
2019-03-26T03:31:52.659Z,9.67
2019-03-26T03:34:21.593Z,8.83
2019-03-26T03:36:50.573Z,8.77
2019-03-26T03:39:19.547Z,9.33
2019-03-26T03:41:48.538Z,9.23
2019-03-26T03:44:17.479Z,9.53
2019-03-26T03:46:48.777Z,8.57
2019-03-26T03:49:20.715Z,8.23
2019-03-26T03:51:51.406Z,10.33
2019-03-26T03:54:22.312Z,7.97
2019-03-26T03:56:57.105Z,9.70
2019-03-26T03:59:27.984Z,9.13
2019-03-26T04:01:56.996Z,10.43
2019-03-26T04:04:26.139Z,8.77
2019-03-26T04:06:55.232Z,8.87
2019-03-26T04:09:24.221Z,9.37
2019-03-26T04:11:53.209Z,9.43
2019-03-26T04:14:22.179Z,8.40
2019-03-26T04:16:56.412Z,10.17
2019-03-26T04:19:30.723Z,8.97
2019-03-26T04:21:59.242Z,9.87
2019-03-26T04:24:37.447Z,9.20
2019-03-26T04:27:09.514Z,10.33
2019-03-26T04:29:38.815Z,9.33
2019-03-26T04:32:07.974Z,9.97
2019-03-26T04:34:37.298Z,10.60
2019-03-26T04:37:08.623Z,9.83
2019-03-26T04:39:43.050Z,9.43
2019-03-26T04:42:11.669Z,9.10
2019-03-26T04:44:44.435Z,10.03
2019-03-26T04:47:13.548Z,10.07
2019-03-26T04:49:44.918Z,9.67
2019-03-26T04:52:13.636Z,9.97
2019-03-26T04:54:42.645Z,9.77
2019-03-26T04:57:11.749Z,9.60
2019-03-26T04:59:40.820Z,10.00
2019-03-26T05:02:09.835Z,10.80
2019-03-26T05:04:39.108Z,9.53
2019-03-26T05:07:08.206Z,11.07
2019-03-26T05:09:37.300Z,10.23
2019-03-26T05:12:08.987Z,11.60
2019-03-26T05:14:38.454Z,10.20
2019-03-26T05:17:10.059Z,10.63
2019-03-26T05:22:45.897Z,10.17
2019-03-26T05:25:15.378Z,10.53
2019-03-26T05:27:47.055Z,10.60
2019-03-26T05:30:17.354Z,11.10
2019-03-26T05:32:46.189Z,10.97
2019-03-26T05:35:15.449Z,10.97
2019-03-26T05:37:44.190Z,12.00
2019-03-26T05:40:19.323Z,11.20
2019-03-26T05:43:07.122Z,10.53
2019-03-26T05:45:36.219Z,9.03
2019-03-26T05:48:16.910Z,9.57
2019-03-26T05:54:00.425Z,13.37
2019-03-26T05:56:30.604Z,11.67
2019-03-26T05:59:04.837Z,11.20
2019-03-26T06:01:33.525Z,12.27
2019-03-26T06:04:02.356Z,11.70
2019-03-26T06:06:31.192Z,12.47
2019-03-26T06:09:15.504Z,12.17
2019-03-26T06:11:48.437Z,13.10
2019-03-26T06:14:17.402Z,13.17
2019-03-26T06:22:44.142Z,16.57
2019-03-26T06:28:23.886Z,15.77
2019-03-26T06:31:04.167Z,14.10
2019-03-26T06:33:34.216Z,11.87
2019-03-26T06:36:27.818Z,13.17
2019-03-26T06:38:57.433Z,12.40
2019-03-26T06:41:26.263Z,12.27
2019-03-26T06:43:55.188Z,13.50
2019-03-26T06:46:23.819Z,12.43
2019-03-26T06:49:03.771Z,12.93
2019-03-26T06:58:25.724Z,12.20
2019-03-26T07:01:01.493Z,12.67
2019-03-26T07:10:17.682Z,13.77
2019-03-26T07:12:46.480Z,13.50
2019-03-26T07:15:31.392Z,14.40
2019-03-26T07:24:20.265Z,15.03
2019-03-26T07:26:51.501Z,14.20
2019-03-26T07:30:16.018Z,15.80
2019-03-26T07:32:02.891Z,14.23
2019-03-26T07:34:35.577Z,13.27
2019-03-26T07:39:53.961Z,14.10
2019-03-26T07:45:14.166Z,13.77
2019-03-26T07:47:52.886Z,14.17
2019-03-26T07:50:33.672Z,13.70
2019-03-26T07:53:02.424Z,13.57
2019-03-26T07:55:31.384Z,13.80
2019-03-26T07:58:00.006Z,13.97
2019-03-26T08:00:39.664Z,13.23
2019-03-26T08:09:38.673Z,12.63
2019-03-26T08:31:40.302Z,11.17
2019-03-26T08:33:59.107Z,11.30
2019-03-26T08:36:28.529Z,11.53
2019-03-26T08:38:57.148Z,11.03
2019-03-26T08:41:25.662Z,12.13
2019-03-26T08:43:54.545Z,12.07
2019-03-26T08:46:23.534Z,11.17
2019-03-26T08:48:52.474Z,11.13
2019-03-26T08:51:21.906Z,10.87
2019-03-26T08:53:50.786Z,10.33
2019-03-26T08:56:19.589Z,10.37
2019-03-26T08:58:48.518Z,8.67
2019-03-26T09:01:17.352Z,9.17
2019-03-26T09:03:46.193Z,8.87
2019-03-26T09:06:14.734Z,9.83
2019-03-26T09:08:43.511Z,8.93
2019-03-26T09:11:12.209Z,8.80
2019-03-26T09:13:40.877Z,8.73
2019-03-26T09:16:09.948Z,8.13
2019-03-26T09:18:38.852Z,7.33
2019-03-26T09:21:07.728Z,8.40
2019-03-26T09:23:36.713Z,6.87
2019-03-26T09:26:05.202Z,7.23
2019-03-26T09:28:34.063Z,6.83
2019-03-26T09:31:05.705Z,6.70
2019-03-26T09:33:34.680Z,7.40
2019-03-26T09:36:03.654Z,7.00
2019-03-26T09:38:44.879Z,6.93
2019-03-26T09:41:13.705Z,7.20
2019-03-26T09:43:42.574Z,7.17
2019-03-26T09:46:21.494Z,7.93
2019-03-26T09:48:46.118Z,7.13
2019-03-26T09:51:17.602Z,7.63
2019-03-26T09:54:08.892Z,6.33
2019-03-26T09:56:38.809Z,7.27
2019-03-26T09:59:07.323Z,5.57
2019-03-26T10:01:35.904Z,6.13
2019-03-26T10:04:04.387Z,6.97
2019-03-26T10:06:33.287Z,6.97
2019-03-26T10:09:02.136Z,7.00
2019-03-26T10:11:31.002Z,7.30
2019-03-26T10:13:59.536Z,6.97
2019-03-26T10:16:29.661Z,7.90
2019-03-26T10:18:58.784Z,6.13
2019-03-26T10:21:27.423Z,5.13
2019-03-26T10:23:56.121Z,6.77
2019-03-26T10:26:25.558Z,6.20
2019-03-26T10:28:54.687Z,5.97
2019-03-26T10:31:23.346Z,5.50
2019-03-26T10:33:52.142Z,6.63
2019-03-26T10:36:21.315Z,6.03
2019-03-26T10:38:50.453Z,5.47
2019-03-26T10:41:19.309Z,6.03
2019-03-26T10:43:47.893Z,5.83
2019-03-26T10:46:30.298Z,4.50
2019-03-26T10:49:02.683Z,5.00
2019-03-26T10:51:31.526Z,4.97
2019-03-26T11:18:07.881Z,5.00
2019-03-26T11:20:46.580Z,5.27
2019-03-26T11:23:15.185Z,4.80
2019-03-26T11:26:18.689Z,5.00
2019-03-26T11:32:16.848Z,5.17
2019-03-26T11:34:56.484Z,5.00
2019-03-26T11:37:29.563Z,5.40
2019-03-26T11:43:27.727Z,3.67
2019-03-26T11:46:05.252Z,4.07
2019-03-26T11:48:31.262Z,3.43
2019-03-26T11:51:00.125Z,3.27
2019-03-26T11:53:29.237Z,3.83
2019-03-26T11:59:07.182Z,3.80
2019-03-26T12:01:35.293Z,4.20
2019-03-26T12:04:10.507Z,4.63
2019-03-26T12:15:28.373Z,2.90
2019-03-26T12:27:48.941Z,3.93
2019-03-26T12:33:59.348Z,3.23
2019-03-26T12:36:39.414Z,3.43
2019-03-26T13:04:35.136Z,2.53
2019-03-26T13:07:07.550Z,2.53
2019-03-26T13:10:25.166Z,2.80
2019-03-26T13:21:51.892Z,2.27
2019-03-26T13:27:59.962Z,2.60
2019-03-26T13:50:03.905Z,2.93
2019-03-26T13:55:37.170Z,2.80
2019-03-26T13:58:05.948Z,3.20
2019-03-26T14:00:36.449Z,3.30
2019-03-26T14:21:23.298Z,2.60
2019-03-26T14:33:19.771Z,2.80
2019-03-26T14:35:48.752Z,2.67
2019-03-26T15:19:59.186Z,3.00
2019-03-26T15:22:27.859Z,3.23
2019-03-26T15:24:59.352Z,2.87
2019-03-26T15:27:27.263Z,3.17
2019-03-26T15:29:59.349Z,2.87
2019-03-26T15:53:36.319Z,3.83
2019-03-26T16:13:27.828Z,5.27
2019-03-26T16:15:57.047Z,4.53
2019-03-26T16:21:12.832Z,5.80
2019-03-26T16:23:44.340Z,5.87
2019-03-26T16:26:13.298Z,5.30
2019-03-26T16:28:42.119Z,4.90
2019-03-26T16:31:11.217Z,5.00
2019-03-26T16:33:40.149Z,5.47
2019-03-26T16:36:09.242Z,5.77
2019-03-26T16:38:41.140Z,5.87
2019-03-26T16:41:09.648Z,6.13
2019-03-26T16:43:38.465Z,6.37
2019-03-26T16:46:07.241Z,6.40
2019-03-26T16:48:37.921Z,7.27
2019-03-26T16:51:06.785Z,8.13
2019-03-26T16:53:35.635Z,8.00
2019-03-26T16:56:04.856Z,7.70
2019-03-26T17:05:29.906Z,9.20
2019-03-26T17:07:58.570Z,9.70
2019-03-26T17:13:54.808Z,12.77
2019-03-26T17:16:29.105Z,12.20
2019-03-26T17:18:58.004Z,13.20
2019-03-26T17:21:27.984Z,12.83
2019-03-26T17:23:56.866Z,13.97
2019-03-26T17:26:35.075Z,14.17
2019-03-26T17:35:33.255Z,13.57
2019-03-26T17:38:02.021Z,14.00
2019-03-26T17:40:32.523Z,13.90
2019-03-26T17:49:37.732Z,12.80
2019-03-26T17:52:06.349Z,13.33
2019-03-26T17:54:40.828Z,13.70
2019-03-26T18:11:36.871Z,12.63
2019-03-26T18:14:37.275Z,14.60
2019-03-26T18:38:26.562Z,13.70
2019-03-26T19:25:45.329Z,12.87
